Tygh Valley, Oregon
Current Conditions -  °F | °C
As of 5:53 PM on Saturday 20 Dec 2014 (Local Time) from KDLS Reporting Station
Light Rain Light Rain  
Wind Chill: 43°   Ceiling: 7000
Heat Index: 43°   Visibility: 8mi
Dew Point: 41°   Wind: 0mph
Humidity: 93%   Direction: NA
Pressure: 29.63"   Gusts: NA
Location:  45.25°N, 121.18°W
Report Text: KDLS 210153Z AUTO 00000KT 8SM -RA BKN070 OVC080 06/05 A2963 RMK AO2 SLP036 P0004 T00610050
Loading
Personal Weather Stations






























Interactive Weather Map New forecast layout! Learn more

10-Day Weather Forecast

Advertisements
Track Severe Weather on mobile